Time;durP1;ratioP1;P1;durP2;ratioP2;P2;SDS_P1;SDS_P2;PMS_P1;PMS_P2;Temp;Humidity;BMP_temperature;BMP_pressure;BME280_temperature;BME280_humidity;BME280_pressure;Samples;Min_cycle;Max_cycle;Signal;HPM_P1;HPM_P2
2023/12/18 00:01:24;;;;;;;66.77;27.73;;;;;;;2.13;77.56;101994.34;5051945;28;20032;-75
2023/12/18 00:03:49;;;;;;;113.95;33.22;;;;;;;2.11;77.88;101987.28;5051379;28;20593;-74
2023/12/18 00:06:14;;;;;;;67.83;27.23;;;;;;;2.07;78.09;101982.72;5051508;28;20037;-75
2023/12/18 00:08:40;;;;;;;81.13;27.67;;;;;;;2.09;78.20;101973.31;5051473;28;20025;-76
2023/12/18 00:11:05;;;;;;;68.93;27.60;;;;;;;2.07;78.06;101967.13;5051565;28;20159;-75
2023/12/18 00:13:31;;;;;;;82.03;28.73;;;;;;;2.04;78.27;101974.72;5050114;28;20025;-75
2023/12/18 00:15:56;;;;;;;81.67;30.50;;;;;;;2.01;77.73;101963.34;5051461;28;20271;-75
2023/12/18 00:18:22;;;;;;;61.40;27.03;;;;;;;2.01;77.67;101971.13;5049923;28;20025;-75
2023/12/18 00:20:47;;;;;;;59.27;27.67;;;;;;;2.01;78.04;101960.72;5051482;28;20465;-74
2023/12/18 00:23:12;;;;;;;66.23;28.37;;;;;;;2.01;78.27;101955.53;5051484;28;20274;-75
2023/12/18 00:25:38;;;;;;;62.03;27.53;;;;;;;2.02;78.27;101959.03;5050080;28;20039;-74
2023/12/18 00:28:04;;;;;;;56.83;25.33;;;;;;;2.01;77.77;101958.13;5051407;28;20498;-76
2023/12/18 00:30:29;;;;;;;61.80;24.80;;;;;;;2.01;77.80;101955.53;5051088;28;20057;-77
2023/12/18 00:32:55;;;;;;;53.90;25.27;;;;;;;2.00;78.23;101956.34;5051289;28;20029;-77
2023/12/18 00:35:20;;;;;;;61.80;26.27;;;;;;;1.97;78.11;101961.38;5051115;28;20048;-76
2023/12/18 00:37:45;;;;;;;57.92;24.95;;;;;;;1.95;78.40;101959.50;5051082;28;20025;-77
2023/12/18 00:40:11;;;;;;;57.07;23.03;;;;;;;1.92;78.52;101955.00;5051078;28;20022;-77
2023/12/18 00:42:36;;;;;;;58.33;25.23;;;;;;;1.90;77.78;101945.31;5051124;28;20058;-77
2023/12/18 00:45:02;;;;;;;59.17;23.67;;;;;;;1.87;78.81;101943.47;5050863;28;20511;-77
2023/12/18 00:47:27;;;;;;;64.80;25.00;;;;;;;1.88;78.03;101937.47;5050579;28;20032;-78
2023/12/18 00:49:53;;;;;;;52.83;24.13;;;;;;;1.90;78.62;101938.44;5050791;28;20025;-77
2023/12/18 00:52:18;;;;;;;57.17;24.67;;;;;;;1.92;78.42;101936.81;5050871;28;20435;-77
2023/12/18 00:54:43;;;;;;;55.53;23.17;;;;;;;1.92;78.50;101939.41;5050403;28;20036;-77
2023/12/18 00:57:09;;;;;;;65.67;26.27;;;;;;;1.90;77.79;101941.03;5050915;28;20025;-77
2023/12/18 00:59:35;;;;;;;60.93;24.57;;;;;;;1.88;77.76;101950.44;5050578;28;20025;-76
2023/12/18 01:02:00;;;;;;;88.87;27.20;;;;;;;1.85;78.56;101951.16;5050397;28;20267;-77
2023/12/18 01:04:26;;;;;;;54.93;23.03;;;;;;;1.80;78.68;101944.78;5050555;28;20063;-77
2023/12/18 01:06:52;;;;;;;57.60;24.40;;;;;;;1.77;78.21;101943.72;5050460;28;20393;-77
2023/12/18 01:09:17;;;;;;;54.03;22.57;;;;;;;1.76;78.55;101942.81;5050419;28;20029;-76
2023/12/18 01:11:43;;;;;;;49.20;22.63;;;;;;;1.79;78.39;101943.00;5050342;28;20036;-77
2023/12/18 01:14:09;;;;;;;47.07;22.07;;;;;;;1.79;78.28;101947.28;5050340;28;20036;-77
2023/12/18 01:16:35;;;;;;;57.70;22.70;;;;;;;1.80;78.24;101949.06;5050105;28;20029;-78
2023/12/18 01:19:00;;;;;;;61.83;22.40;;;;;;;1.80;78.84;101950.00;5050290;28;20398;-77
2023/12/18 01:21:26;;;;;;;68.80;23.00;;;;;;;1.82;78.06;101948.38;5050559;28;20029;-77
2023/12/18 01:23:51;;;;;;;67.03;24.77;;;;;;;1.83;77.61;101949.28;5049160;28;20025;-77
2023/12/18 01:26:17;;;;;;;59.25;21.92;;;;;;;1.79;77.90;101955.06;5049989;28;20107;-76
2023/12/18 01:28:42;;;;;;;62.77;21.67;;;;;;;1.76;78.28;101954.91;5049899;28;20036;-76
2023/12/18 01:31:08;;;;;;;64.10;20.92;;;;;;;1.65;78.71;101952.56;5050023;28;20428;-77
2023/12/18 01:33:34;;;;;;;42.83;21.07;;;;;;;1.62;78.33;101961.88;5050098;28;20053;-78
2023/12/18 01:35:59;;;;;;;58.58;21.75;;;;;;;1.61;78.01;101954.88;5050045;28;20029;-77
2023/12/18 01:38:25;;;;;;;55.70;19.57;;;;;;;1.60;78.34;101951.41;5050098;28;20027;-77
2023/12/18 01:40:53;;;;;;;45.03;19.40;;;;;;;1.64;78.17;101953.38;5050102;28;20024;-76
2023/12/18 01:43:26;;;;;;;48.95;20.63;;;;;;;1.65;77.86;101955.16;5049864;28;20028;-77
2023/12/18 01:45:59;;;;;;;37.55;19.73;;;;;;;1.64;78.10;101952.47;5049586;28;20538;-77
2023/12/18 01:48:26;;;;;;;46.08;19.23;;;;;;;1.64;78.15;101960.25;5049197;28;20033;-77
2023/12/18 01:50:53;;;;;;;44.47;19.10;;;;;;;1.64;77.92;101963.78;5049592;28;20481;-77
2023/12/18 01:53:19;;;;;;;40.65;19.77;;;;;;;1.64;77.96;101961.16;5049768;28;20691;-77
2023/12/18 01:55:45;;;;;;;41.70;19.48;;;;;;;1.64;77.85;101961.16;5049750;28;20421;-76
2023/12/18 01:58:13;;;;;;;42.67;18.77;;;;;;;1.64;77.78;101958.56;5049433;28;20017;-76
2023/12/18 02:00:39;;;;;;;44.83;19.38;;;;;;;1.65;78.47;101959.44;5049555;28;20021;-76
2023/12/18 02:03:05;;;;;;;53.22;20.58;;;;;;;1.66;78.30;101951.78;5049648;28;20029;-77
2023/12/18 02:05:31;;;;;;;57.25;18.70;;;;;;;1.65;78.18;101949.06;5049518;28;20032;-77
2023/12/18 02:07:57;;;;;;;56.23;18.83;;;;;;;1.60;77.70;101951.41;5049493;28;20103;-78
2023/12/18 02:10:23;;;;;;;39.58;18.90;;;;;;;1.56;78.11;101949.41;5049515;28;20036;-76
2023/12/18 02:12:48;;;;;;;41.65;18.38;;;;;;;1.51;78.23;101956.03;5049526;28;20600;-77
2023/12/18 02:15:13;;;;;;;40.80;19.20;;;;;;;1.50;78.77;101954.25;5049658;28;20029;-77
2023/12/18 02:17:39;;;;;;;39.30;18.97;;;;;;;1.52;78.34;101952.63;5049367;28;20024;-77
2023/12/18 02:20:06;;;;;;;37.90;19.10;;;;;;;1.53;78.62;101954.41;5049528;28;20043;-78
2023/12/18 02:22:50;;;;;;;48.60;19.48;;;;;;;1.51;78.15;101956.03;5049678;28;20025;-78
2023/12/18 02:25:16;;;;;;;44.22;20.23;;;;;;;1.49;78.38;101947.25;5048748;28;20040;-77
2023/12/18 02:27:44;;;;;;;44.78;19.63;;;;;;;1.47;78.72;101948.88;5049185;28;20029;-77
2023/12/18 02:30:17;;;;;;;58.20;19.40;;;;;;;1.45;78.23;101950.47;5048746;28;20033;-78
2023/12/18 02:32:43;;;;;;;61.63;20.13;;;;;;;1.42;78.25;101957.28;5049590;28;20047;-78
2023/12/18 02:35:09;;;;;;;56.83;20.30;;;;;;;1.40;77.91;101940.72;5049464;28;20037;-77
2023/12/18 02:37:34;;;;;;;37.87;19.17;;;;;;;1.41;78.12;101939.91;5049499;28;20166;-77
2023/12/18 02:40:00;;;;;;;45.00;19.90;;;;;;;1.40;78.47;101939.81;5049540;28;20266;-78
2023/12/18 02:42:25;;;;;;;40.10;19.23;;;;;;;1.40;78.19;101943.31;5049446;28;20539;-77
2023/12/18 02:44:50;;;;;;;50.63;20.03;;;;;;;1.40;78.21;101942.41;5049094;28;20037;-77
2023/12/18 02:47:16;;;;;;;46.53;20.13;;;;;;;1.38;77.72;101937.13;5048851;28;20132;-76
2023/12/18 02:49:43;;;;;;;51.07;19.60;;;;;;;1.37;78.33;101932.75;5048943;28;20036;-77
2023/12/18 02:52:08;;;;;;;48.50;19.48;;;;;;;1.34;77.66;101937.75;5049103;28;20638;-77
2023/12/18 02:54:33;;;;;;;38.23;19.27;;;;;;;1.33;77.69;101946.34;5048974;28;20029;-77
2023/12/18 02:56:59;;;;;;;47.70;19.33;;;;;;;1.31;77.84;101947.91;5049295;28;20025;-77
2023/12/18 02:59:24;;;;;;;50.60;20.47;;;;;;;1.26;77.68;101949.34;5049179;28;20061;-76
2023/12/18 03:01:50;;;;;;;45.77;19.43;;;;;;;1.22;78.27;101947.38;5052201;28;20036;-76
2023/12/18 03:04:18;;;;;;;47.70;18.75;;;;;;;1.20;78.14;101948.97;5052974;28;20108;-77
2023/12/18 03:06:45;;;;;;;41.77;19.43;;;;;;;1.20;77.79;101942.06;5052878;28;20124;-77
2023/12/18 03:09:10;;;;;;;48.45;19.35;;;;;;;1.19;78.43;101947.19;5052829;28;20028;-77
2023/12/18 03:11:36;;;;;;;52.03;19.50;;;;;;;1.19;78.07;101936.81;5052639;28;20053;-76
2023/12/18 03:14:01;;;;;;;38.17;18.93;;;;;;;1.19;78.57;101942.00;5052657;28;20302;-76
2023/12/18 03:16:27;;;;;;;44.30;19.17;;;;;;;1.19;78.38;101936.81;5051925;28;20032;-76
2023/12/18 03:18:52;;;;;;;40.53;18.83;;;;;;;1.18;78.39;101932.44;5052641;28;20064;-76
2023/12/18 03:21:17;;;;;;;40.43;19.37;;;;;;;1.16;78.57;101932.31;5052569;28;20465;-77
2023/12/18 03:23:43;;;;;;;40.47;19.38;;;;;;;1.12;77.67;101935.53;5051696;28;20096;-76
2023/12/18 03:26:08;;;;;;;40.37;19.93;;;;;;;1.08;77.71;101937.03;5052193;28;20049;-76
2023/12/18 03:28:33;;;;;;;37.90;19.43;;;;;;;1.05;77.98;101933.38;5052234;28;20025;-76
2023/12/18 03:30:59;;;;;;;37.77;19.20;;;;;;;1.02;78.34;101934.06;5052373;28;21171;-76
2023/12/18 03:33:24;;;;;;;40.57;20.20;;;;;;;0.98;78.50;101929.50;5052475;28;20029;-76
2023/12/18 03:35:49;;;;;;;38.80;19.20;;;;;;;0.97;77.92;101932.88;5052223;28;20393;-78
2023/12/18 03:38:15;;;;;;;37.53;18.83;;;;;;;0.96;78.80;101923.31;5052717;28;20044;-77
2023/12/18 03:40:40;;;;;;;37.53;19.23;;;;;;;0.94;78.65;101928.38;5052357;28;20075;-76
2023/12/18 03:43:06;;;;;;;40.50;19.00;;;;;;;0.94;78.68;101917.13;5052124;28;20033;-79
2023/12/18 03:45:31;;;;;;;39.10;18.33;;;;;;;0.94;78.16;101930.09;5051946;28;20047;-77
2023/12/18 03:47:56;;;;;;;38.33;18.58;;;;;;;0.94;78.37;101925.78;5051842;28;20086;-76
2023/12/18 03:50:22;;;;;;;38.90;18.80;;;;;;;0.95;78.48;101926.72;5051854;28;20474;-76
2023/12/18 03:52:47;;;;;;;33.93;17.90;;;;;;;0.93;77.86;101924.00;5051959;28;20029;-76
2023/12/18 03:55:13;;;;;;;37.20;18.37;;;;;;;0.95;77.75;101921.53;5052120;28;20099;-77
2023/12/18 03:57:39;;;;;;;45.72;19.73;;;;;;;0.94;77.75;101920.59;5052065;28;20041;-76
2023/12/18 04:00:06;;;;;;;36.23;18.03;;;;;;;0.94;78.54;101927.50;5051707;28;20554;-76
2023/12/18 04:02:31;;;;;;;34.25;17.60;;;;;;;0.89;77.95;101924.63;5050646;28;20040;-78
2023/12/18 04:04:56;;;;;;;30.90;17.40;;;;;;;0.90;77.67;101928.13;5051891;28;20401;-77
2023/12/18 04:07:22;;;;;;;38.92;18.60;;;;;;;0.89;77.46;101931.53;5051722;28;20068;-76
2023/12/18 04:09:47;;;;;;;43.87;19.83;;;;;;;0.85;78.40;101930.44;5051720;28;20061;-77
2023/12/18 04:12:13;;;;;;;41.00;19.00;;;;;;;0.80;78.22;101924.06;5050809;28;20401;-76
2023/12/18 04:14:38;;;;;;;43.07;20.47;;;;;;;0.76;77.82;101930.75;5051431;28;20469;-77
2023/12/18 04:17:04;;;;;;;37.00;19.03;;;;;;;0.73;78.21;101927.97;5051608;28;20333;-77
2023/12/18 04:19:29;;;;;;;42.17;18.43;;;;;;;0.72;78.63;101928.75;5050229;28;20377;-77
2023/12/18 04:21:54;;;;;;;38.60;18.60;;;;;;;0.70;78.16;101927.78;5051711;28;20035;-76
2023/12/18 04:24:20;;;;;;;40.10;19.20;;;;;;;0.67;78.40;101931.06;5050367;28;20036;-77
2023/12/18 04:26:46;;;;;;;40.60;18.67;;;;;;;0.65;78.05;101929.19;5051204;28;20095;-76
2023/12/18 04:29:11;;;;;;;37.57;18.57;;;;;;;0.66;78.59;101925.78;5051170;28;20350;-75
2023/12/18 04:31:37;;;;;;;41.95;18.27;;;;;;;0.63;78.50;101923.88;5051194;28;20075;-76
2023/12/18 04:34:02;;;;;;;37.00;16.70;;;;;;;0.62;78.15;101924.69;5051384;28;20130;-76
2023/12/18 04:36:27;;;;;;;40.33;17.17;;;;;;;0.64;78.01;101922.22;5051327;28;20032;-76
2023/12/18 04:38:53;;;;;;;34.77;17.23;;;;;;;0.65;77.98;101921.41;5051302;28;20455;-77
2023/12/18 04:41:22;;;;;;;38.70;16.38;;;;;;;0.65;78.03;101932.66;5051168;28;20114;-76
2023/12/18 04:43:48;;;;;;;34.10;16.63;;;;;;;0.66;78.21;101925.78;5050758;28;20032;-77
2023/12/18 04:46:14;;;;;;;35.75;16.60;;;;;;;0.67;78.03;101925.88;5050981;28;20040;-78
2023/12/18 04:48:41;;;;;;;37.28;15.82;;;;;;;0.68;78.53;101925.06;5050713;28;20044;-76
2023/12/18 04:51:07;;;;;;;33.17;17.80;;;;;;;0.70;78.78;101920.00;5050731;28;20039;-76
2023/12/18 04:53:33;;;;;;;36.20;16.30;;;;;;;0.71;77.80;101921.78;5050876;28;20114;-76
2023/12/18 04:55:59;;;;;;;33.03;16.90;;;;;;;0.72;78.46;101915.78;5050823;28;20021;-75
2023/12/18 04:58:24;;;;;;;39.00;17.87;;;;;;;0.67;77.73;101905.13;5050722;28;20074;-76
2023/12/18 05:00:50;;;;;;;36.60;17.63;;;;;;;0.66;78.08;101912.81;5050180;28;20047;-77
2023/12/18 05:03:15;;;;;;;39.20;16.90;;;;;;;0.60;77.77;101912.41;5050409;28;20479;-76
2023/12/18 05:05:41;;;;;;;39.53;17.13;;;;;;;0.55;77.81;101914.72;5050532;28;20029;-77
2023/12/18 05:08:06;;;;;;;41.37;18.30;;;;;;;0.52;78.05;101914.53;5050645;28;20029;-77
2023/12/18 05:10:32;;;;;;;49.13;18.73;;;;;;;0.51;78.55;101918.81;5050493;28;20438;-77
2023/12/18 05:12:57;;;;;;;43.07;17.57;;;;;;;0.50;78.06;101921.34;5050518;28;20652;-77
2023/12/18 05:15:24;;;;;;;39.97;19.00;;;;;;;0.52;78.82;101918.00;5050343;28;20048;-77
2023/12/18 05:17:49;;;;;;;41.05;18.15;;;;;;;0.53;78.85;101912.03;5050519;28;20090;-77
2023/12/18 05:20:14;;;;;;;43.60;19.33;;;;;;;0.57;78.19;101926.09;5050627;28;20041;-76
2023/12/18 05:22:40;;;;;;;54.07;19.77;;;;;;;0.60;78.57;101925.38;5049939;28;20025;-76
2023/12/18 05:25:08;;;;;;;62.50;20.03;;;;;;;0.62;78.40;101926.41;5048913;28;20637;-76
2023/12/18 05:27:33;;;;;;;52.80;20.42;;;;;;;0.61;78.04;101925.50;5050085;28;20135;-77
2023/12/18 05:29:59;;;;;;;67.50;21.37;;;;;;;0.62;78.27;101922.09;5050165;28;20033;-77
2023/12/18 05:32:24;;;;;;;52.23;21.00;;;;;;;0.60;77.59;101915.00;5049654;28;20488;-76
2023/12/18 05:34:50;;;;;;;50.47;19.23;;;;;;;0.56;77.67;101920.00;5049988;28;20040;-76
2023/12/18 05:37:15;;;;;;;37.97;18.80;;;;;;;0.52;77.65;101925.78;5050289;28;20029;-76
2023/12/18 05:39:41;;;;;;;45.03;18.65;;;;;;;0.48;77.77;101923.81;5050056;28;20387;-78
2023/12/18 05:42:06;;;;;;;37.97;17.20;;;;;;;0.43;77.93;101922.63;5050024;28;20041;-78
2023/12/18 05:44:31;;;;;;;36.40;18.43;;;;;;;0.40;78.05;101925.03;5049590;28;20039;-77
2023/12/18 05:46:57;;;;;;;34.37;18.00;;;;;;;0.39;78.51;101920.63;5049798;28;20028;-78
2023/12/18 05:49:22;;;;;;;34.90;17.73;;;;;;;0.38;78.08;101916.25;5049988;28;20492;-76
2023/12/18 05:51:48;;;;;;;34.10;17.67;;;;;;;0.38;78.41;101921.44;5049722;28;20025;-77
2023/12/18 05:54:13;;;;;;;29.87;16.87;;;;;;;0.37;77.63;101919.66;5049944;28;20029;-77
2023/12/18 05:56:38;;;;;;;33.47;16.77;;;;;;;0.34;77.97;101915.16;5048427;28;20029;-76
2023/12/18 05:59:04;;;;;;;33.47;17.20;;;;;;;0.33;78.10;101923.72;5049707;28;20242;-76
2023/12/18 06:01:29;;;;;;;31.97;17.07;;;;;;;0.33;78.37;101922.81;5049486;28;20056;-76
2023/12/18 06:03:54;;;;;;;29.97;17.30;;;;;;;0.33;77.94;101923.72;5049472;28;20028;-76
2023/12/18 06:06:20;;;;;;;32.33;17.07;;;;;;;0.34;77.78;101924.59;5049670;28;20751;-76
2023/12/18 06:08:45;;;;;;;36.57;19.13;;;;;;;0.32;78.17;101916.75;5049731;28;20056;-76
2023/12/18 06:11:11;;;;;;;34.03;18.03;;;;;;;0.30;78.13;101918.34;5049293;28;20021;-77
2023/12/18 06:13:39;;;;;;;35.50;18.40;;;;;;;0.28;77.94;101915.63;5049447;28;20091;-76
2023/12/18 06:16:04;;;;;;;34.80;17.48;;;;;;;0.27;77.82;101913.84;5049778;28;20427;-76
2023/12/18 06:18:30;;;;;;;36.47;19.40;;;;;;;0.28;78.13;101914.75;5049040;28;20033;-76
2023/12/18 06:20:55;;;;;;;34.33;18.70;;;;;;;0.28;77.94;101912.19;5049685;28;20021;-76
2023/12/18 06:23:21;;;;;;;32.77;17.13;;;;;;;0.24;78.01;101916.25;5049571;28;20028;-78
2023/12/18 06:25:46;;;;;;;35.40;18.67;;;;;;;0.20;78.02;101919.44;5048470;28;20048;-79
2023/12/18 06:28:11;;;;;;;33.47;17.58;;;;;;;0.19;77.39;101925.41;5049600;28;20029;-74
2023/12/18 06:30:37;;;;;;;35.77;18.57;;;;;;;0.17;77.61;101914.06;5049049;28;20036;-77
2023/12/18 06:33:02;;;;;;;36.30;19.77;;;;;;;0.17;77.73;101921.84;5049424;28;20028;-77
2023/12/18 06:35:28;;;;;;;36.63;19.77;;;;;;;0.17;77.71;101926.09;5042050;28;20060;-74
2023/12/18 06:37:53;;;;;;;39.17;20.43;;;;;;;0.16;77.36;101933.00;5046886;28;20554;-77
2023/12/18 06:40:18;;;;;;;38.35;20.13;;;;;;;0.11;77.24;101935.28;5052030;28;20120;-76
2023/12/18 06:42:44;;;;;;;39.13;20.17;;;;;;;0.07;77.42;101934.97;5052758;28;20029;-76
2023/12/18 06:45:09;;;;;;;37.97;19.87;;;;;;;0.04;77.93;101930.50;5051742;28;20479;-76
2023/12/18 06:47:35;;;;;;;37.53;19.50;;;;;;;0.02;78.08;101931.19;5049191;28;20025;-77
2023/12/18 06:50:00;;;;;;;40.75;19.92;;;;;;;0.02;78.11;101931.19;5050146;28;20037;-75
2023/12/18 06:52:25;;;;;;;35.70;19.67;;;;;;;-0.02;77.62;101930.97;5052240;28;20116;-74
2023/12/18 06:54:51;;;;;;;37.40;18.87;;;;;;;-0.04;78.07;101927.41;5052542;28;20104;-76
2023/12/18 06:57:16;;;;;;;36.70;17.67;;;;;;;-0.05;77.76;101935.06;5052387;28;20413;-75
2023/12/18 06:59:41;;;;;;;34.33;17.63;;;;;;;-0.05;77.88;101930.78;5051925;28;20067;-74
2023/12/18 07:02:07;;;;;;;40.53;17.92;;;;;;;-0.06;77.87;101929.00;5049378;28;20039;-75
2023/12/18 07:04:32;;;;;;;43.20;18.30;;;;;;;-0.06;77.95;101918.63;5051975;28;20036;-77
2023/12/18 07:06:58;;;;;;;38.77;17.23;;;;;;;-0.06;77.89;101913.47;5051732;28;20020;-77
2023/12/18 07:09:24;;;;;;;33.83;15.93;;;;;;;-0.06;77.56;101921.22;5051711;28;20025;-77
2023/12/18 07:11:50;;;;;;;34.45;16.70;;;;;;;-0.06;77.60;101923.81;5051793;28;20045;-78
2023/12/18 07:14:15;;;;;;;37.27;15.80;;;;;;;-0.04;77.53;101929.06;5051172;28;20090;-77
2023/12/18 07:16:41;;;;;;;33.33;14.95;;;;;;;-0.05;77.50;101927.28;5051619;28;20078;-76
2023/12/18 07:19:07;;;;;;;33.28;15.55;;;;;;;-0.05;77.93;101925.59;5052297;28;20076;-77
2023/12/18 07:21:32;;;;;;;34.43;14.63;;;;;;;-0.05;77.38;101925.59;5052807;28;20029;-78
2023/12/18 07:23:58;;;;;;;30.93;14.23;;;;;;;-0.05;77.42;101919.50;5050840;28;20029;-75
2023/12/18 07:26:23;;;;;;;34.80;16.07;;;;;;;-0.05;77.50;101930.78;5041480;28;20045;-76
2023/12/18 07:28:48;;;;;;;37.00;16.08;;;;;;;-0.05;77.83;101925.59;5059251;28;20536;-75
2023/12/18 07:31:14;;;;;;;31.73;15.57;;;;;;;-0.05;77.47;101930.78;5050304;28;20112;-79
2023/12/18 07:33:39;;;;;;;35.30;15.00;;;;;;;-0.07;77.39;101937.56;5051703;28;20366;-74
2023/12/18 07:36:05;;;;;;;32.87;15.77;;;;;;;-0.08;77.62;101935.75;5049218;28;20048;-75
2023/12/18 07:38:30;;;;;;;30.67;13.93;;;;;;;-0.08;77.43;101940.94;5046569;28;20021;-79
2023/12/18 07:40:57;;;;;;;28.57;12.77;;;;;;;-0.07;77.69;101945.31;5052194;28;20025;-73
2023/12/18 07:43:22;;;;;;;30.42;14.35;;;;;;;-0.07;77.49;101947.91;5052032;28;20053;-76
2023/12/18 07:45:48;;;;;;;28.15;13.60;;;;;;;-0.06;77.53;101947.13;5050264;28;20552;-78
2023/12/18 07:48:13;;;;;;;26.30;14.20;;;;;;;-0.07;77.55;101942.75;5051931;28;20032;-77
2023/12/18 07:50:39;;;;;;;30.77;13.83;;;;;;;-0.07;77.68;101947.00;5047938;28;20033;-77
2023/12/18 07:53:04;;;;;;;26.10;12.40;;;;;;;-0.07;77.36;101955.69;5051828;28;20440;-73
2023/12/18 07:55:30;;;;;;;27.57;12.87;;;;;;;-0.06;77.89;101952.31;5050487;28;20274;-76
2023/12/18 07:57:55;;;;;;;24.93;11.80;;;;;;;-0.04;77.57;101953.28;5048684;28;20104;-74
2023/12/18 08:00:21;;;;;;;27.10;12.00;;;;;;;0.01;77.32;101942.34;5051202;28;20017;-74
2023/12/18 08:02:46;;;;;;;26.00;13.10;;;;;;;0.13;77.39;101944.03;5071817;28;20705;-73
2023/12/18 08:05:11;;;;;;;31.13;15.10;;;;;;;0.31;77.29;101946.06;5053004;28;20086;-77
2023/12/18 08:07:37;;;;;;;30.90;15.13;;;;;;;0.47;77.15;101952.22;5051820;28;20094;-73
2023/12/18 08:10:02;;;;;;;32.57;14.77;;;;;;;0.59;76.70;101952.09;5051953;28;20096;-73
2023/12/18 08:12:28;;;;;;;28.23;13.10;;;;;;;0.77;76.88;101948.09;5051696;28;20539;-77
2023/12/18 08:14:54;;;;;;;29.60;15.33;;;;;;;0.98;75.76;101937.28;5051594;28;20029;-73
2023/12/18 08:17:19;;;;;;;26.85;13.10;;;;;;;1.18;75.43;101945.41;5051863;28;20017;-74
2023/12/18 08:19:46;;;;;;;25.50;13.20;;;;;;;1.29;75.56;101949.53;5051630;28;20025;-74
2023/12/18 08:22:12;;;;;;;24.17;11.75;;;;;;;1.38;75.29;101937.13;5051566;28;20074;-74
2023/12/18 08:24:37;;;;;;;22.97;11.93;;;;;;;1.48;75.25;101936.00;5050156;28;20040;-76
2023/12/18 08:27:03;;;;;;;19.80;10.60;;;;;;;1.58;75.37;101933.13;5050958;28;20063;-73
2023/12/18 08:29:29;;;;;;;21.70;11.18;;;;;;;1.71;75.25;101939.06;5051389;28;20292;-75
2023/12/18 08:31:55;;;;;;;19.88;9.95;;;;;;;1.80;75.07;101939.59;5051199;28;20112;-73
2023/12/18 08:34:21;;;;;;;19.20;9.50;;;;;;;1.86;75.48;101942.53;5051570;28;20086;-75
2023/12/18 08:36:46;;;;;;;20.15;10.68;;;;;;;1.96;75.53;101940.50;5051196;28;20087;-75
2023/12/18 08:39:12;;;;;;;22.30;10.30;;;;;;;2.08;75.34;101942.91;5051164;28;20064;-74
2023/12/18 08:41:38;;;;;;;21.17;10.20;;;;;;;2.21;74.71;101945.41;5051212;28;20061;-74
2023/12/18 08:44:04;;;;;;;18.55;9.40;;;;;;;2.38;75.17;101950.69;5050753;28;20056;-74
2023/12/18 08:46:30;;;;;;;18.73;9.20;;;;;;;2.49;74.57;101952.16;5050865;28;20051;-76
2023/12/18 08:48:56;;;;;;;22.13;10.30;;;;;;;2.64;74.86;101948.66;5050956;28;20021;-74
2023/12/18 08:51:21;;;;;;;20.80;10.15;;;;;;;2.76;74.93;101948.44;5050973;28;20036;-74
2023/12/18 08:53:46;;;;;;;19.63;9.60;;;;;;;2.90;74.04;101946.59;5050890;28;20037;-74
2023/12/18 08:56:12;;;;;;;18.47;9.13;;;;;;;3.00;73.99;101946.25;5050687;28;20159;-76
2023/12/18 08:58:39;;;;;;;16.83;8.40;;;;;;;3.04;74.03;101950.84;5050679;28;20029;-77
2023/12/18 09:01:05;;;;;;;17.58;8.68;;;;;;;3.08;74.08;101955.41;5050584;28;20028;-78
2023/12/18 09:03:35;;;;;;;19.45;9.20;;;;;;;3.18;74.38;101953.28;5050543;28;20021;-79
2023/12/18 09:06:02;;;;;;;20.90;10.32;;;;;;;3.25;74.25;101955.38;5050725;28;20033;-77
2023/12/18 09:08:28;;;;;;;18.73;8.97;;;;;;;3.29;73.98;101957.38;5050647;28;20029;-79
2023/12/18 09:10:53;;;;;;;19.00;9.27;;;;;;;3.38;74.28;101952.63;5050712;28;20040;-79
2023/12/18 09:13:19;;;;;;;20.43;10.03;;;;;;;3.44;73.92;101952.06;5050687;28;20025;-76
2023/12/18 09:15:44;;;;;;;18.52;9.40;;;;;;;3.48;74.02;101955.69;5048632;28;20512;-76
2023/12/18 09:18:10;;;;;;;17.57;9.37;;;;;;;3.52;73.75;101955.06;5050654;28;20099;-77
2023/12/18 09:20:35;;;;;;;17.70;9.57;;;;;;;3.57;74.04;101953.59;5050199;28;20031;-78
2023/12/18 09:23:05;;;;;;;20.43;10.47;;;;;;;3.65;74.05;101957.47;5050069;28;20567;-76
2023/12/18 09:25:30;;;;;;;19.15;9.98;;;;;;;3.70;73.99;101955.13;5049734;28;20559;-76
2023/12/18 09:27:55;;;;;;;20.35;9.50;;;;;;;3.73;73.97;101961.38;5050189;28;20059;-76
2023/12/18 09:30:21;;;;;;;20.37;9.77;;;;;;;3.78;74.33;101958.13;5050122;28;20112;-76
2023/12/18 09:32:46;;;;;;;17.30;9.53;;;;;;;3.87;74.15;101955.97;5050274;28;20439;-76
2023/12/18 09:35:12;;;;;;;17.73;9.33;;;;;;;3.98;73.64;101957.44;5050268;28;20474;-76
2023/12/18 09:37:37;;;;;;;19.23;9.37;;;;;;;4.04;74.02;101950.72;5050292;28;20051;-76
2023/12/18 09:40:05;;;;;;;20.80;9.00;;;;;;;4.11;73.96;101945.00;5050120;28;20057;-78
2023/12/18 09:42:31;;;;;;;16.87;8.50;;;;;;;4.25;73.91;101951.81;5050078;28;20048;-76
2023/12/18 09:44:57;;;;;;;18.55;9.20;;;;;;;4.42;73.32;101936.97;5049431;28;20477;-77
2023/12/18 09:47:23;;;;;;;18.27;8.07;;;;;;;4.55;73.41;101946.28;5049612;28;20066;-76
2023/12/18 09:49:49;;;;;;;19.10;9.43;;;;;;;4.65;73.51;101941.47;5049839;28;20600;-77
2023/12/18 09:52:17;;;;;;;16.98;9.13;;;;;;;4.71;73.09;101936.59;5050158;28;20041;-76
2023/12/18 09:54:44;;;;;;;21.83;9.45;;;;;;;4.77;73.96;101947.31;5049865;28;20491;-77
2023/12/18 09:57:14;;;;;;;17.57;8.70;;;;;;;4.88;72.94;101946.06;5049843;28;20025;-76
2023/12/18 09:59:39;;;;;;;18.30;9.30;;;;;;;5.00;73.05;101950.09;5049684;28;20057;-75
2023/12/18 10:02:07;;;;;;;18.57;8.80;;;;;;;5.11;72.75;101945.34;5049646;28;20067;-76
2023/12/18 10:04:32;;;;;;;16.45;8.80;;;;;;;5.16;72.89;101941.22;5049612;28;20531;-78
2023/12/18 10:06:59;;;;;;;17.80;9.40;;;;;;;5.23;72.91;101939.78;5049690;28;20029;-80
2023/12/18 10:09:24;;;;;;;21.88;9.45;;;;;;;5.29;73.11;101935.72;5049208;28;20056;-77
2023/12/18 10:11:50;;;;;;;21.97;10.27;;;;;;;5.43;72.51;101931.13;5049646;28;20071;-76
2023/12/18 10:14:16;;;;;;;17.80;9.25;;;;;;;5.56;73.03;101932.56;5049353;28;20126;-76
2023/12/18 10:16:42;;;;;;;17.80;9.63;;;;;;;5.76;72.39;101919.44;5049201;28;20608;-76
2023/12/18 10:19:08;;;;;;;19.83;10.05;;;;;;;5.90;71.52;101922.63;5049451;28;20456;-80
2023/12/18 10:21:33;;;;;;;20.00;10.00;;;;;;;5.97;72.00;101919.47;5049502;28;20033;-75
2023/12/18 10:23:59;;;;;;;18.27;8.90;;;;;;;6.06;72.33;101918.09;5048156;28;20021;-73
2023/12/18 10:26:24;;;;;;;18.83;9.17;;;;;;;6.16;72.26;101907.19;5048995;28;20040;-74
2023/12/18 10:28:51;;;;;;;18.63;9.50;;;;;;;6.31;72.16;101915.63;5049360;28;20021;-73
2023/12/18 10:31:17;;;;;;;21.15;9.40;;;;;;;6.44;71.27;101905.66;5049442;28;20032;-73
2023/12/18 10:33:43;;;;;;;19.73;9.52;;;;;;;6.66;70.56;101915.25;5049456;28;20068;-72
2023/12/18 10:36:09;;;;;;;22.43;9.70;;;;;;;6.81;71.06;101912.31;5049631;28;20041;-74
2023/12/18 10:38:38;;;;;;;24.05;9.00;;;;;;;6.92;70.66;101906.59;5049517;28;20031;-73
2023/12/18 10:41:04;;;;;;;19.15;9.05;;;;;;;7.03;70.97;101907.88;5049398;28;20520;-78
2023/12/18 10:43:34;;;;;;;16.42;8.75;;;;;;;7.20;70.21;101905.00;5049332;28;20414;-77
2023/12/18 10:46:02;;;;;;;22.15;8.90;;;;;;;7.29;70.17;101910.56;5048997;28;20040;-79
2023/12/18 10:48:28;;;;;;;20.10;9.50;;;;;;;7.30;69.91;101907.09;5048702;28;20078;-77
2023/12/18 10:50:55;;;;;;;22.85;9.38;;;;;;;7.37;69.82;101903.88;5049136;28;20025;-76
2023/12/18 10:53:23;;;;;;;19.75;9.77;;;;;;;7.49;69.70;101892.03;5049284;28;20025;-75
2023/12/18 10:55:49;;;;;;;20.00;9.20;;;;;;;7.53;69.89;101899.16;5049191;28;20070;-75
2023/12/18 10:58:16;;;;;;;19.37;10.10;;;;;;;7.70;70.15;101908.53;5048046;28;20046;-76
2023/12/18 11:00:43;;;;;;;21.75;9.75;;;;;;;7.74;69.72;101902.53;5047630;28;20025;-76
2023/12/18 11:03:09;;;;;;;21.05;10.07;;;;;;;7.97;68.43;101899.78;5048943;28;20074;-74
2023/12/18 11:05:39;;;;;;;20.45;9.90;;;;;;;8.05;68.73;101894.81;5049061;28;20028;-76
2023/12/18 11:08:05;;;;;;;19.60;9.07;;;;;;;8.15;68.57;101888.13;5049178;28;20029;-75
2023/12/18 11:10:30;;;;;;;22.42;10.60;;;;;;;8.29;68.41;101883.31;5048996;28;20021;-75